Time;durP1;ratioP1;P1;durP2;ratioP2;P2;SDS_P1;SDS_P2;PMS_P1;PMS_P2;Temp;Humidity;BMP_temperature;BMP_pressure;BME280_temperature;BME280_humidity;BME280_pressure;Samples;Min_cycle;Max_cycle;Signal;HPM_P1;HPM_P2
2023/01/20 00:00:23;;;;;;;9.33;5.80;;;-1.90;99.90;;;;;;5051929;28;20605;-77
2023/01/20 00:02:48;;;;;;;9.50;6.90;;;-1.90;99.90;;;;;;5051114;28;20172;-76
2023/01/20 00:05:14;;;;;;;8.10;5.40;;;-1.90;99.90;;;;;;5050873;28;20216;-76
2023/01/20 00:07:40;;;;;;;10.93;5.53;;;-1.90;99.90;;;;;;5052628;28;20180;-76
2023/01/20 00:10:06;;;;;;;6.27;4.53;;;-1.80;99.90;;;;;;5034465;28;20547;-77
2023/01/20 00:12:32;;;;;;;7.78;5.57;;;-1.80;99.90;;;;;;5050505;28;20238;-77
2023/01/20 00:14:57;;;;;;;8.70;5.30;;;-1.90;99.90;;;;;;5050648;28;20191;-78
2023/01/20 00:17:23;;;;;;;10.40;5.50;;;-1.90;99.90;;;;;;5052063;28;20486;-79
2023/01/20 00:19:48;;;;;;;10.17;5.33;;;-2.00;99.90;;;;;;5034099;28;20738;-78
2023/01/20 00:22:14;;;;;;;6.17;4.40;;;-2.00;99.90;;;;;;5034373;28;20561;-77
2023/01/20 00:24:40;;;;;;;6.60;4.90;;;-1.90;99.90;;;;;;5033843;28;20266;-76
2023/01/20 00:27:06;;;;;;;9.57;5.80;;;-1.90;99.90;;;;;;5050353;28;20187;-78
2023/01/20 00:29:32;;;;;;;6.60;4.90;;;-1.90;99.90;;;;;;5050041;28;20242;-77
2023/01/20 00:31:57;;;;;;;6.70;5.00;;;-1.80;99.90;;;;;;5051384;28;20204;-78
2023/01/20 00:34:23;;;;;;;9.07;4.80;;;-1.80;99.90;;;;;;5050646;28;20186;-77
2023/01/20 00:36:49;;;;;;;8.07;5.10;;;-1.80;99.90;;;;;;5050655;28;20221;-78
2023/01/20 00:39:14;;;;;;;10.40;4.70;;;-1.80;99.90;;;;;;5051442;28;20208;-77
2023/01/20 00:41:40;;;;;;;6.13;4.60;;;-1.70;99.90;;;;;;5051826;28;20204;-79
2023/01/20 00:44:05;;;;;;;7.63;5.03;;;-1.70;99.90;;;;;;5050342;28;20707;-78
2023/01/20 00:46:31;;;;;;;5.13;4.53;;;-1.60;99.90;;;;;;5033650;28;20184;-77
2023/01/20 00:48:57;;;;;;;5.73;4.50;;;-1.60;99.90;;;;;;5049839;28;20183;-77
2023/01/20 00:51:22;;;;;;;4.70;4.07;;;-1.50;99.90;;;;;;5049466;28;20242;-77
2023/01/20 00:53:48;;;;;;;4.83;4.40;;;-1.40;99.90;;;;;;5049434;28;20198;-79
2023/01/20 00:56:13;;;;;;;6.60;4.50;;;-1.30;99.90;;;;;;5050032;28;20184;-77
2023/01/20 00:58:42;;;;;;;6.33;4.50;;;-1.30;99.90;;;;;;5050067;28;20242;-77
2023/01/20 01:01:07;;;;;;;6.07;4.38;;;-1.30;99.90;;;;;;5051096;28;20290;-77
2023/01/20 01:03:33;;;;;;;6.90;4.70;;;-1.20;99.90;;;;;;5050981;28;20272;-77
2023/01/20 01:06:07;;;;;;;5.10;4.40;;;-1.20;99.90;;;;;;5049630;28;20183;-77
2023/01/20 01:08:33;;;;;;;7.38;4.72;;;-1.30;99.90;;;;;;5050762;28;20182;-76
2023/01/20 01:10:59;;;;;;;9.00;5.32;;;-1.20;99.90;;;;;;5049434;28;20208;-77
2023/01/20 01:13:25;;;;;;;11.20;5.70;;;-1.20;99.90;;;;;;5049405;28;20180;-77
2023/01/20 01:15:50;;;;;;;6.10;5.03;;;-1.20;99.90;;;;;;5049414;28;20188;-78
2023/01/20 01:18:16;;;;;;;4.83;4.37;;;-1.20;99.90;;;;;;5050825;28;20218;-77
2023/01/20 01:20:43;;;;;;;5.07;4.33;;;-1.20;99.90;;;;;;5049101;28;20199;-77
2023/01/20 01:23:10;;;;;;;4.78;4.03;;;-1.20;99.90;;;;;;5032818;28;20931;-77
2023/01/20 01:25:36;;;;;;;5.32;4.07;;;-1.20;99.90;;;;;;5050718;28;20706;-77
2023/01/20 01:28:02;;;;;;;4.78;4.00;;;-1.20;99.90;;;;;;5049200;28;20283;-78
2023/01/20 01:30:27;;;;;;;9.13;3.73;;;-1.30;99.90;;;;;;5049306;28;20274;-78
2023/01/20 01:32:53;;;;;;;5.03;4.47;;;-1.30;99.90;;;;;;5048921;28;20186;-79
2023/01/20 01:35:18;;;;;;;4.30;3.73;;;-1.30;99.90;;;;;;5048868;28;20184;-79
2023/01/20 01:37:44;;;;;;;9.90;4.73;;;-1.20;99.90;;;;;;5049337;28;20659;-78
2023/01/20 01:40:25;;;;;;;7.43;4.20;;;-1.10;99.90;;;;;;5006223;28;20239;-75
2023/01/20 01:42:50;;;;;;;5.77;4.20;;;-1.00;99.90;;;;;;5048802;28;20211;-78
2023/01/20 01:45:19;;;;;;;4.67;3.70;;;-1.00;99.90;;;;;;5050070;28;20223;-78
2023/01/20 01:47:57;;;;;;;8.48;3.92;;;-1.00;99.90;;;;;;5049997;28;20168;-77
2023/01/20 01:50:28;;;;;;;7.50;4.07;;;-1.00;99.90;;;;;;5050116;28;20629;-79
2023/01/20 01:52:55;;;;;;;5.22;4.25;;;-1.00;99.90;;;;;;5048780;28;20184;-77
2023/01/20 01:55:26;;;;;;;4.63;3.65;;;-1.00;99.90;;;;;;5050148;28;20203;-76
2023/01/20 01:57:52;;;;;;;8.00;4.50;;;-1.00;99.90;;;;;;5049774;28;20629;-77
2023/01/20 02:00:18;;;;;;;6.60;4.30;;;-1.00;99.90;;;;;;5048127;28;20239;-76
2023/01/20 02:02:44;;;;;;;6.07;3.97;;;-1.00;99.90;;;;;;5049433;28;20192;-75
2023/01/20 02:05:12;;;;;;;8.88;4.43;;;-1.00;99.90;;;;;;5031752;28;20607;-80
2023/01/20 02:07:39;;;;;;;6.72;4.70;;;-1.00;99.90;;;;;;5032739;28;20653;-78
2023/01/20 02:10:05;;;;;;;8.00;3.67;;;-1.00;99.90;;;;;;5049830;28;20191;-77
2023/01/20 02:12:31;;;;;;;8.45;3.42;;;-1.00;99.90;;;;;;5048308;28;20206;-77
2023/01/20 02:15:00;;;;;;;5.67;3.87;;;-1.00;99.90;;;;;;5047759;28;20183;-77
2023/01/20 02:17:34;;;;;;;6.75;4.95;;;-1.10;99.90;;;;;;5048231;28;20171;-81
2023/01/20 02:20:30;;;;;;;4.35;3.95;;;-1.20;99.90;;;;;;5052808;28;20206;-78
2023/01/20 02:23:36;;;;;;;5.38;4.32;;;-1.30;99.90;;;;;;5049483;28;20264;-77
2023/01/20 02:26:32;;;;;;;7.03;4.95;;;-1.20;99.90;;;;;;5047940;28;20195;-78
2023/01/20 02:29:28;;;;;;;5.65;4.07;;;-1.20;99.90;;;;;;5048137;28;20171;-79
2023/01/20 02:31:54;;;;;;;5.13;4.60;;;-1.20;99.90;;;;;;5048487;28;20214;-79
2023/01/20 02:34:39;;;;;;;5.70;4.50;;;-1.20;99.90;;;;;;5047924;28;20184;-79
2023/01/20 02:37:13;;;;;;;5.47;4.47;;;-1.10;99.90;;;;;;5051203;28;20179;-77
2023/01/20 02:39:44;;;;;;;6.22;5.30;;;-1.10;99.90;;;;;;5048978;28;20203;-79
2023/01/20 02:42:20;;;;;;;5.60;4.55;;;-1.20;99.90;;;;;;5050000;28;20203;-80
2023/01/20 02:45:03;;;;;;;9.63;4.97;;;-1.20;99.90;;;;;;5049160;28;20186;-79
2023/01/20 02:47:49;;;;;;;10.85;4.85;;;-1.20;99.90;;;;;;5048383;28;20211;-80
2023/01/20 02:50:22;;;;;;;6.28;4.80;;;-1.20;99.90;;;;;;5047732;28;20200;-77
2023/01/20 02:52:52;;;;;;;10.80;5.22;;;-1.20;99.90;;;;;;5048859;28;20210;-78
2023/01/20 02:55:28;;;;;;;6.88;5.00;;;-1.20;99.90;;;;;;5048876;28;20210;-78
2023/01/20 02:58:03;;;;;;;8.05;4.78;;;-1.20;99.90;;;;;;5047628;28;20191;-78
2023/01/20 03:00:35;;;;;;;7.32;5.75;;;-1.30;99.90;;;;;;5047289;28;20668;-78
2023/01/20 03:03:06;;;;;;;11.23;4.53;;;-1.30;99.90;;;;;;5048773;28;20184;-77
2023/01/20 03:05:37;;;;;;;10.68;4.72;;;-1.20;99.90;;;;;;5048693;28;20199;-77
2023/01/20 03:08:06;;;;;;;8.98;5.25;;;-1.20;99.90;;;;;;5048916;28;20167;-76
2023/01/20 03:10:35;;;;;;;9.00;5.53;;;-1.20;99.90;;;;;;5047456;28;20207;-77
2023/01/20 03:13:12;;;;;;;8.35;5.40;;;-1.20;99.90;;;;;;5048904;28;20184;-80
2023/01/20 03:15:47;;;;;;;9.48;5.82;;;-1.30;99.90;;;;;;5058193;28;20163;-80
2023/01/20 03:18:12;;;;;;;7.97;5.90;;;-1.30;99.90;;;;;;5051183;28;20226;-77
2023/01/20 03:20:38;;;;;;;6.60;4.90;;;-1.30;99.90;;;;;;5051185;28;20604;-77
2023/01/20 03:23:04;;;;;;;6.73;4.73;;;-1.40;99.90;;;;;;5052407;28;20200;-77
2023/01/20 03:25:30;;;;;;;8.47;6.00;;;-1.40;99.90;;;;;;5034486;28;20190;-78
2023/01/20 03:27:56;;;;;;;7.03;5.13;;;-1.40;99.90;;;;;;5050875;28;20176;-77
2023/01/20 03:30:23;;;;;;;7.50;5.40;;;-1.40;99.90;;;;;;5050728;28;20189;-78
2023/01/20 03:32:50;;;;;;;7.25;5.63;;;-1.50;99.90;;;;;;5052280;28;20172;-76
2023/01/20 03:35:16;;;;;;;6.97;4.68;;;-1.50;99.90;;;;;;5052214;28;20188;-76
2023/01/20 03:37:43;;;;;;;7.00;5.30;;;-1.50;99.90;;;;;;5034176;28;20194;-77
2023/01/20 03:40:10;;;;;;;4.82;4.40;;;-1.60;99.90;;;;;;5052291;28;20414;-77
2023/01/20 03:42:44;;;;;;;6.93;4.85;;;-1.60;99.90;;;;;;5050587;28;20191;-77
2023/01/20 03:45:27;;;;;;;5.45;4.30;;;-1.60;99.90;;;;;;5052585;28;20247;-79
2023/01/20 03:48:16;;;;;;;7.35;4.85;;;-1.60;99.90;;;;;;5052211;28;20179;-78
2023/01/20 03:50:56;;;;;;;9.38;5.38;;;-1.70;99.90;;;;;;5051672;28;20199;-78
2023/01/20 03:53:50;;;;;;;9.73;5.40;;;-1.70;99.90;;;;;;5051618;28;20685;-77
2023/01/20 03:56:29;;;;;;;5.13;4.40;;;-1.70;99.90;;;;;;5052034;28;20667;-76
2023/01/20 03:58:58;;;;;;;9.20;5.00;;;-1.60;99.90;;;;;;5052478;28;20196;-78
2023/01/20 04:01:33;;;;;;;5.75;4.65;;;-1.60;99.90;;;;;;5050731;28;20255;-78
2023/01/20 04:04:01;;;;;;;7.30;4.90;;;-1.60;99.90;;;;;;5052112;28;20165;-77
2023/01/20 04:06:29;;;;;;;4.95;4.45;;;-1.60;99.90;;;;;;5050721;28;20207;-77
2023/01/20 04:09:03;;;;;;;4.68;4.28;;;-1.60;99.90;;;;;;5052210;28;20271;-77
2023/01/20 04:11:28;;;;;;;7.90;4.70;;;-1.60;99.90;;;;;;5051799;28;20210;-78
2023/01/20 04:13:54;;;;;;;5.83;4.30;;;-1.40;99.90;;;;;;5050432;28;20284;-78
2023/01/20 04:16:21;;;;;;;6.20;4.80;;;-1.40;99.90;;;;;;5052148;28;20637;-77
2023/01/20 04:18:49;;;;;;;8.25;5.45;;;-1.40;99.90;;;;;;5050256;28;20684;-76
2023/01/20 04:21:27;;;;;;;7.22;3.85;;;-1.40;99.90;;;;;;5050719;28;20744;-78
2023/01/20 04:24:02;;;;;;;6.53;4.82;;;-1.30;99.90;;;;;;5051033;28;20176;-79
2023/01/20 04:26:28;;;;;;;6.93;5.15;;;-1.20;99.90;;;;;;5050986;28;20172;-79
2023/01/20 04:28:53;;;;;;;9.00;4.83;;;-1.10;99.90;;;;;;5052034;28;20184;-78
2023/01/20 04:31:19;;;;;;;7.50;5.03;;;-1.10;99.90;;;;;;5050492;28;20208;-78
2023/01/20 04:33:44;;;;;;;10.07;5.17;;;-1.10;99.90;;;;;;5050229;28;20716;-78
2023/01/20 04:36:10;;;;;;;7.10;4.93;;;-1.00;99.90;;;;;;5051506;28;20691;-78
2023/01/20 04:38:36;;;;;;;7.43;4.97;;;-1.00;99.90;;;;;;5032921;28;20215;-78
2023/01/20 04:41:01;;;;;;;8.43;5.57;;;-0.90;99.90;;;;;;5049381;28;20200;-78
2023/01/20 04:43:27;;;;;;;11.27;7.50;;;-0.80;99.90;;;;;;5049608;28;20272;-77
2023/01/20 04:45:52;;;;;;;14.23;9.03;;;-0.80;99.90;;;;;;5050901;28;20240;-78
2023/01/20 04:48:18;;;;;;;19.37;11.90;;;-0.80;99.90;;;;;;5049399;28;20188;-77
2023/01/20 04:50:43;;;;;;;14.70;9.90;;;-0.80;99.90;;;;;;5049465;28;20215;-77
2023/01/20 04:53:12;;;;;;;11.30;6.90;;;-0.80;99.90;;;;;;5050773;28;20198;-77
2023/01/20 04:55:38;;;;;;;12.82;7.80;;;-0.90;99.90;;;;;;5050803;28;20212;-78
2023/01/20 04:58:03;;;;;;;18.83;11.93;;;-0.90;99.90;;;;;;5050720;28;20678;-79
2023/01/20 05:00:29;;;;;;;14.30;7.53;;;-0.90;99.90;;;;;;5049384;28;20442;-78
2023/01/20 05:02:58;;;;;;;8.53;7.60;;;-0.90;99.90;;;;;;5051401;28;20175;-78
2023/01/20 05:05:23;;;;;;;9.32;7.22;;;-1.00;99.90;;;;;;5033121;28;20203;-77
2023/01/20 05:07:53;;;;;;;10.67;8.07;;;-1.00;99.90;;;;;;5048902;28;20624;-77
2023/01/20 05:10:19;;;;;;;15.80;8.82;;;-1.00;99.90;;;;;;5032357;28;20799;-77
2023/01/20 05:12:44;;;;;;;10.17;7.57;;;-1.00;99.90;;;;;;5050573;28;20169;-77
2023/01/20 05:15:10;;;;;;;12.93;8.10;;;-1.00;99.90;;;;;;5048959;28;20476;-77
2023/01/20 05:17:36;;;;;;;13.20;9.00;;;-1.00;99.90;;;;;;5048741;28;20715;-76
2023/01/20 05:20:01;;;;;;;14.43;9.10;;;-1.10;99.90;;;;;;5048718;28;20297;-75
2023/01/20 05:22:28;;;;;;;12.90;9.00;;;-1.20;99.90;;;;;;5049986;28;20222;-75
2023/01/20 05:24:54;;;;;;;12.13;9.02;;;-1.30;99.90;;;;;;5050031;28;20291;-75
2023/01/20 05:27:19;;;;;;;14.60;10.63;;;-1.40;99.90;;;;;;5049741;28;20270;-76
2023/01/20 05:29:45;;;;;;;12.80;8.70;;;-1.40;99.90;;;;;;5048368;28;20210;-75
2023/01/20 05:32:10;;;;;;;14.83;9.20;;;-1.30;99.90;;;;;;5048473;28;20234;-76
2023/01/20 05:34:36;;;;;;;16.07;10.20;;;-1.30;99.90;;;;;;5049978;28;20222;-75
2023/01/20 05:37:01;;;;;;;18.03;11.60;;;-1.20;99.90;;;;;;5049693;28;20176;-74
2023/01/20 05:39:27;;;;;;;13.47;8.90;;;-1.20;99.90;;;;;;5047320;28;20234;-75
2023/01/20 05:41:53;;;;;;;14.20;8.67;;;-1.20;99.90;;;;;;5048835;28;20206;-76
2023/01/20 05:44:18;;;;;;;13.53;9.43;;;-1.20;99.90;;;;;;5048679;28;20184;-76
2023/01/20 05:46:44;;;;;;;16.80;9.80;;;-1.10;99.90;;;;;;5048839;28;20211;-74
2023/01/20 05:49:11;;;;;;;15.00;9.63;;;-1.10;99.90;;;;;;5048813;28;20184;-76
2023/01/20 05:51:37;;;;;;;17.02;10.70;;;-1.00;99.90;;;;;;5048695;28;20199;-75
2023/01/20 05:54:03;;;;;;;15.40;9.80;;;-1.00;99.90;;;;;;5047332;28;20188;-75
2023/01/20 05:56:28;;;;;;;18.23;11.00;;;-1.00;99.90;;;;;;5047542;28;20438;-75
2023/01/20 05:58:54;;;;;;;16.73;10.60;;;-0.90;99.90;;;;;;5048687;28;20470;-76
2023/01/20 06:01:21;;;;;;;14.35;10.15;;;-1.00;99.90;;;;;;5048840;28;20595;-75
2023/01/20 06:03:46;;;;;;;18.33;11.43;;;-0.90;99.90;;;;;;5047628;28;20180;-77
2023/01/20 06:06:14;;;;;;;19.07;10.80;;;-0.90;99.90;;;;;;5047651;28;20186;-76
2023/01/20 06:08:40;;;;;;;15.88;10.98;;;-1.00;99.90;;;;;;5031612;28;20188;-76
2023/01/20 06:11:06;;;;;;;15.70;10.48;;;-0.90;99.90;;;;;;5049856;28;20234;-78
2023/01/20 06:13:34;;;;;;;16.33;9.97;;;-0.90;99.90;;;;;;5049282;28;20603;-74
2023/01/20 06:15:59;;;;;;;20.27;10.50;;;-0.90;99.90;;;;;;5047849;28;20180;-76
2023/01/20 06:18:25;;;;;;;15.83;11.40;;;-0.80;99.90;;;;;;5048511;28;20226;-75
2023/01/20 06:20:51;;;;;;;23.13;14.30;;;-0.80;99.90;;;;;;5048350;28;20215;-74
2023/01/20 06:23:17;;;;;;;21.43;13.13;;;-0.80;99.90;;;;;;5047584;28;20183;-75
2023/01/20 06:25:42;;;;;;;21.88;12.60;;;-0.80;99.90;;;;;;5047520;28;20186;-75
2023/01/20 06:28:08;;;;;;;21.90;14.40;;;-0.80;99.90;;;;;;5047847;28;20179;-75
2023/01/20 06:30:34;;;;;;;20.00;13.93;;;-0.80;99.90;;;;;;5045746;28;20688;-75
2023/01/20 06:33:00;;;;;;;18.83;13.40;;;-0.80;99.90;;;;;;5047232;28;20176;-75
2023/01/20 06:35:25;;;;;;;18.47;12.03;;;-0.80;99.90;;;;;;5047059;28;20723;-75
2023/01/20 06:37:51;;;;;;;16.50;12.10;;;-0.80;99.90;;;;;;5029145;28;20230;-75
2023/01/20 06:40:17;;;;;;;17.70;12.20;;;-0.70;99.90;;;;;;5047041;28;20211;-75
2023/01/20 06:42:42;;;;;;;20.17;11.30;;;-0.70;99.90;;;;;;5045443;28;20652;-75
2023/01/20 06:45:09;;;;;;;22.83;12.87;;;-0.70;99.90;;;;;;5046955;28;20657;-75
2023/01/20 06:47:34;;;;;;;22.45;11.32;;;-0.70;99.90;;;;;;5046965;28;20425;-75
2023/01/20 06:50:00;;;;;;;17.53;11.37;;;-0.70;99.90;;;;;;5045916;28;20552;-75
2023/01/20 06:52:26;;;;;;;16.93;11.30;;;-0.70;99.90;;;;;;5051222;28;20283;-75
2023/01/20 06:54:51;;;;;;;20.03;11.93;;;-0.70;99.90;;;;;;5050688;28;20184;-75
2023/01/20 06:57:17;;;;;;;19.03;12.27;;;-0.70;99.90;;;;;;5050723;28;20215;-74
2023/01/20 06:59:43;;;;;;;17.23;11.70;;;-0.70;99.90;;;;;;5050634;28;20211;-75
2023/01/20 07:02:11;;;;;;;18.80;13.27;;;-0.70;99.90;;;;;;5032561;28;20208;-75
2023/01/20 07:04:36;;;;;;;17.00;12.90;;;-0.70;99.90;;;;;;5050462;28;20630;-75
2023/01/20 07:07:02;;;;;;;20.17;14.50;;;-0.70;99.90;;;;;;5050566;28;20208;-75
2023/01/20 07:09:28;;;;;;;21.57;14.77;;;-0.60;99.90;;;;;;5048863;28;20564;-75
2023/01/20 07:11:53;;;;;;;24.33;15.17;;;-0.60;99.90;;;;;;5032403;28;20212;-75
2023/01/20 07:14:19;;;;;;;20.40;14.13;;;-0.50;99.90;;;;;;5050407;28;20194;-75
2023/01/20 07:16:45;;;;;;;22.67;14.47;;;-0.50;99.90;;;;;;5050529;28;20418;-75
2023/01/20 07:19:11;;;;;;;20.47;13.63;;;-0.50;99.90;;;;;;5050541;28;20732;-75
2023/01/20 07:21:37;;;;;;;22.08;14.32;;;-0.50;99.90;;;;;;5048682;28;20442;-75
2023/01/20 07:24:03;;;;;;;25.07;15.83;;;-0.50;99.90;;;;;;5050582;28;20190;-75
2023/01/20 07:26:29;;;;;;;27.08;14.55;;;-0.50;99.90;;;;;;5050088;28;20750;-75
2023/01/20 07:28:57;;;;;;;23.70;12.63;;;-0.50;99.90;;;;;;5050114;28;20604;-75
2023/01/20 07:31:24;;;;;;;23.65;12.80;;;-0.60;99.90;;;;;;5050280;28;20230;-75
2023/01/20 07:33:51;;;;;;;27.88;11.45;;;-0.60;99.90;;;;;;5048344;28;20184;-74
2023/01/20 07:36:17;;;;;;;32.45;11.68;;;-0.60;99.90;;;;;;5049988;28;20599;-75
2023/01/20 07:38:46;;;;;;;30.63;12.50;;;-0.50;99.90;;;;;;5049914;28;20211;-74
2023/01/20 07:41:14;;;;;;;21.23;11.20;;;-0.40;99.90;;;;;;5049809;28;20445;-75
2023/01/20 07:43:41;;;;;;;22.50;12.02;;;-0.40;99.90;;;;;;5049733;28;20718;-74
2023/01/20 07:46:07;;;;;;;16.80;11.80;;;-0.40;99.90;;;;;;5049762;28;20207;-75
2023/01/20 07:48:33;;;;;;;15.17;10.70;;;-0.40;99.90;;;;;;5049736;28;20349;-75
2023/01/20 07:51:04;;;;;;;20.03;11.50;;;-0.30;99.90;;;;;;5049480;28;20215;-75
2023/01/20 07:53:30;;;;;;;19.27;11.48;;;-0.30;99.90;;;;;;5049489;28;20180;-74
2023/01/20 07:55:59;;;;;;;17.27;11.85;;;-0.30;99.90;;;;;;5049528;28;20184;-75
2023/01/20 07:58:25;;;;;;;20.70;12.55;;;-0.30;99.90;;;;;;5049535;28;20339;-75
2023/01/20 08:00:51;;;;;;;18.20;13.17;;;-0.30;99.90;;;;;;5049206;28;20303;-75
2023/01/20 08:03:16;;;;;;;15.43;11.50;;;-0.20;99.90;;;;;;5048021;28;20187;-75
2023/01/20 08:05:42;;;;;;;25.93;12.77;;;-0.20;99.90;;;;;;5047952;28;20214;-75
2023/01/20 08:08:07;;;;;;;19.67;12.53;;;-0.20;99.90;;;;;;5047911;28;20183;-75
2023/01/20 08:10:33;;;;;;;19.57;13.23;;;-0.20;99.90;;;;;;5047876;28;20192;-75
2023/01/20 08:12:58;;;;;;;22.17;13.13;;;-0.20;99.90;;;;;;5049319;28;20262;-75
2023/01/20 08:15:24;;;;;;;15.23;10.27;;;-0.20;99.90;;;;;;5049412;28;20181;-74
2023/01/20 08:17:54;;;;;;;13.80;9.60;;;-0.20;99.90;;;;;;5049184;28;20237;-75
2023/01/20 08:20:20;;;;;;;13.50;9.25;;;-0.20;99.90;;;;;;5049552;28;20657;-75
2023/01/20 08:22:46;;;;;;;13.43;8.97;;;-0.10;99.90;;;;;;5048362;28;20188;-75
2023/01/20 08:25:11;;;;;;;14.57;10.30;;;-0.10;99.90;;;;;;5049606;28;20525;-74
2023/01/20 08:27:37;;;;;;;28.13;9.47;;;0.00;99.90;;;;;;5049454;28;20267;-73
2023/01/20 08:30:03;;;;;;;14.70;10.50;;;0.00;99.90;;;;;;5049577;28;20188;-74
2023/01/20 08:32:29;;;;;;;12.35;8.75;;;0.00;99.90;;;;;;5049381;28;20227;-74
2023/01/20 08:34:55;;;;;;;17.30;9.60;;;0.10;99.90;;;;;;5049094;28;20188;-75
2023/01/20 08:37:20;;;;;;;13.33;8.40;;;0.10;99.90;;;;;;5049686;28;20491;-75
2023/01/20 08:39:46;;;;;;;10.00;7.77;;;0.20;99.90;;;;;;5047955;28;20287;-74
2023/01/20 08:42:12;;;;;;;13.23;8.40;;;0.20;99.90;;;;;;5049321;28;20199;-74
2023/01/20 08:44:38;;;;;;;13.03;8.03;;;0.30;99.90;;;;;;5049504;28;20190;-75
2023/01/20 08:47:03;;;;;;;13.07;8.73;;;0.30;99.90;;;;;;5047884;28;20220;-75
2023/01/20 08:49:29;;;;;;;13.07;10.33;;;0.40;99.90;;;;;;5049568;28;20429;-75
2023/01/20 08:51:56;;;;;;;14.53;9.73;;;0.40;99.90;;;;;;5049542;28;20857;-76
2023/01/20 08:54:22;;;;;;;11.65;8.52;;;0.40;99.90;;;;;;5049656;28;20403;-76
2023/01/20 08:56:52;;;;;;;14.55;8.63;;;0.40;99.90;;;;;;5049085;28;20202;-76
2023/01/20 08:59:18;;;;;;;15.88;9.35;;;0.50;99.90;;;;;;5049812;28;20223;-76
2023/01/20 09:01:44;;;;;;;15.68;8.52;;;0.60;99.90;;;;;;5050218;28;20235;-76
2023/01/20 09:04:10;;;;;;;28.83;13.67;;;0.60;99.90;;;;;;5048568;28;20619;-77
2023/01/20 09:06:49;;;;;;;23.20;13.27;;;0.60;99.90;;;;;;5049792;28;20184;-77
2023/01/20 09:09:16;;;;;;;20.50;12.30;;;0.50;99.90;;;;;;5049689;28;20279;-76
2023/01/20 09:11:49;;;;;;;16.48;11.82;;;0.60;99.90;;;;;;5049648;28;20200;-76
2023/01/20 09:14:15;;;;;;;19.00;10.73;;;0.90;99.90;;;;;;5049057;28;20176;-78
2023/01/20 09:16:40;;;;;;;14.25;9.63;;;0.80;99.90;;;;;;5031523;28;20184;-77
2023/01/20 09:19:09;;;;;;;16.50;10.77;;;0.80;99.90;;;;;;5048157;28;20211;-77
2023/01/20 09:21:34;;;;;;;13.48;9.52;;;1.00;99.90;;;;;;5047900;28;20199;-77
2023/01/20 09:24:00;;;;;;;14.07;10.13;;;1.10;99.90;;;;;;5047677;28;20230;-77
2023/01/20 09:26:25;;;;;;;12.40;9.27;;;1.30;99.90;;;;;;5047912;28;20184;-76
2023/01/20 09:28:51;;;;;;;12.90;9.30;;;1.40;99.90;;;;;;5047895;28;20204;-77
2023/01/20 09:31:17;;;;;;;11.20;9.00;;;1.50;99.90;;;;;;5047245;28;20238;-77
2023/01/20 09:33:42;;;;;;;14.60;9.60;;;1.60;99.90;;;;;;5047670;28;20705;-77
2023/01/20 09:36:10;;;;;;;13.30;9.43;;;1.60;99.90;;;;;;5048620;28;20176;-76
2023/01/20 09:44:30;;;;;;;15.35;9.32;;;2.00;99.90;;;;;;5047496;28;20199;-76
2023/01/20 09:47:21;;;;;;;12.57;9.07;;;2.00;99.90;;;;;;5048092;28;20259;-78
2023/01/20 09:55:46;;;;;;;15.88;8.77;;;2.00;99.90;;;;;;5048117;28;20290;-77
2023/01/20 09:58:27;;;;;;;17.30;10.15;;;1.90;99.90;;;;;;5048134;28;20198;-77
2023/01/20 10:01:17;;;;;;;16.98;9.35;;;2.10;99.90;;;;;;5046511;28;20274;-77
2023/01/20 10:04:01;;;;;;;13.88;10.05;;;2.50;99.90;;;;;;5046591;28;20177;-76
2023/01/20 10:06:53;;;;;;;12.65;9.82;;;3.10;99.90;;;;;;5048095;28;20214;-77
2023/01/20 10:09:49;;;;;;;12.60;9.02;;;3.50;99.90;;;;;;5048673;28;20188;-78
2023/01/20 10:12:34;;;;;;;15.88;8.50;;;4.20;99.90;;;;;;5048710;28;20204;-77
2023/01/20 10:15:14;;;;;;;12.05;8.25;;;5.00;99.90;;;;;;5048452;28;20184;-78
2023/01/20 10:17:50;;;;;;;10.45;7.70;;;5.70;99.90;;;;;;5048526;28;20186;-77
2023/01/20 10:20:36;;;;;;;10.00;8.10;;;6.50;99.90;;;;;;5047065;28;20664;-77
2023/01/20 10:23:10;;;;;;;9.23;7.00;;;8.20;96.30;;;;;;5048815;28;20392;-77
2023/01/20 10:25:41;;;;;;;9.70;7.80;;;8.50;93.50;;;;;;5048201;28;20914;-76
2023/01/20 10:28:27;;;;;;;8.77;7.87;;;9.10;92.00;;;;;;5048101;28;20494;-77
2023/01/20 10:30:54;;;;;;;11.37;8.27;;;10.20;87.80;;;;;;5029920;28;21190;-77
2023/01/20 10:33:37;;;;;;;11.37;8.17;;;9.70;85.80;;;;;;5046852;28;20517;-78
2023/01/20 10:36:03;;;;;;;11.67;7.50;;;9.10;85.30;;;;;;5047901;28;20402;-77
2023/01/20 10:38:38;;;;;;;9.87;6.50;;;8.80;87.20;;;;;;5048245;28;20470;-77
2023/01/20 10:41:19;;;;;;;7.40;6.70;;;8.60;90.20;;;;;;5047862;28;20422;-77
2023/01/20 10:43:46;;;;;;;11.20;8.73;;;8.30;87.50;;;;;;5047875;28;20405;-77
2023/01/20 10:46:36;;;;;;;20.30;14.53;;;7.80;89.80;;;;;;5046422;28;20451;-77
2023/01/20 10:49:40;;;;;;;36.83;18.80;;;7.10;91.00;;;;;;5046300;28;20788;-77
2023/01/20 10:52:42;;;;;;;10.00;7.87;;;6.60;92.70;;;;;;5045815;28;20452;-77
2023/01/20 10:55:35;;;;;;;13.90;10.30;;;6.20;94.00;;;;;;5047606;28;20394;-77
2023/01/20 10:58:26;;;;;;;13.80;7.80;;;5.80;94.60;;;;;;5045752;28;20836;-77
2023/01/20 11:00:53;;;;;;;13.23;10.40;;;5.40;94.80;;;;;;5047566;28;20838;-77
2023/01/20 11:03:20;;;;;;;11.60;9.00;;;5.10;96.20;;;;;;5047433;28;20410;-78
2023/01/20 11:05:48;;;;;;;11.37;7.97;;;4.80;96.50;;;;;;5046490;28;20430;-76
2023/01/20 11:08:22;;;;;;;21.10;17.20;;;4.50;96.90;;;;;;5047911;28;20970;-76
2023/01/20 11:10:51;;;;;;;15.70;12.00;;;4.30;98.00;;;;;;5047901;28;20429;-76
2023/01/20 11:13:17;;;;;;;14.77;11.27;;;4.20;99.90;;;;;;5047897;28;20446;-77
2023/01/20 11:15:49;;;;;;;9.53;7.57;;;4.00;99.70;;;;;;5047924;28;20211;-76
2023/01/20 11:18:15;;;;;;;16.48;7.60;;;3.70;99.90;;;;;;5047382;28;20292;-76
2023/01/20 11:20:45;;;;;;;10.97;6.57;;;3.50;99.90;;;;;;5047066;28;20198;-77
2023/01/20 11:23:29;;;;;;;20.93;9.30;;;3.30;99.90;;;;;;5047707;28;20190;-76
2023/01/20 11:26:08;;;;;;;14.33;8.00;;;3.20;99.90;;;;;;5045599;28;20507;-76
2023/01/20 11:29:05;;;;;;;10.57;7.45;;;3.00;99.90;;;;;;5045564;28;20520;-76
2023/01/20 11:31:50;;;;;;;11.87;8.00;;;2.90;99.90;;;;;;5046681;28;20593;-76
2023/01/20 11:34:31;;;;;;;9.88;7.00;;;2.70;99.90;;;;;;5046878;28;20410;-76
2023/01/20 11:37:06;;;;;;;9.30;6.50;;;2.80;99.90;;;;;;5030872;28;20252;-76
2023/01/20 11:39:34;;;;;;;12.23;6.50;;;2.80;99.90;;;;;;5050593;28;20237;-77
2023/01/20 11:42:17;;;;;;;6.10;5.50;;;2.90;99.90;;;;;;5049231;28;20201;-77
2023/01/20 11:44:48;;;;;;;11.15;6.80;;;2.90;99.90;;;;;;5049578;28;20246;-76
2023/01/20 11:47:35;;;;;;;6.88;5.30;;;2.90;99.90;;;;;;5049066;28;20203;-76
2023/01/20 11:50:04;;;;;;;12.73;6.53;;;2.50;99.90;;;;;;5050378;28;20189;-76
2023/01/20 11:52:34;;;;;;;14.95;8.10;;;2.40;99.90;;;;;;5050193;28;20201;-77
2023/01/20 11:55:22;;;;;;;10.00;7.05;;;2.50;99.90;;;;;;5050467;28;20192;-77
2023/01/20 11:57:54;;;;;;;15.07;10.38;;;2.60;99.90;;;;;;5048698;28;20177;-76
2023/01/20 12:00:29;;;;;;;11.73;6.70;;;2.50;99.90;;;;;;5048417;28;20710;-76
2023/01/20 12:03:01;;;;;;;19.55;7.43;;;2.60;99.90;;;;;;5050174;28;20180;-76
2023/01/20 12:05:37;;;;;;;11.55;7.15;;;2.80;99.90;;;;;;5049879;28;20189;-77
2023/01/20 12:08:08;;;;;;;9.95;6.85;;;3.00;99.90;;;;;;5050089;28;20260;-77
2023/01/20 12:10:36;;;;;;;12.52;7.47;;;2.70;99.90;;;;;;5048229;28;20208;-77
2023/01/20 12:13:11;;;;;;;9.07;6.38;;;2.50;99.90;;;;;;5049774;28;20195;-77
2023/01/20 12:15:42;;;;;;;11.35;6.88;;;2.50;99.90;;;;;;5049770;28;20224;-77
2023/01/20 12:18:35;;;;;;;11.75;6.90;;;2.60;99.90;;;;;;5049626;28;20187;-76
2023/01/20 12:21:17;;;;;;;8.13;5.25;;;2.80;99.90;;;;;;5049804;28;20205;-76
2023/01/20 12:23:46;;;;;;;7.55;5.10;;;2.80;99.90;;;;;;5049683;28;20157;-77
2023/01/20 12:26:17;;;;;;;7.32;4.85;;;3.30;99.90;;;;;;5049571;28;20187;-76
2023/01/20 12:29:24;;;;;;;12.95;5.90;;;3.60;99.90;;;;;;5048066;28;20194;-76
2023/01/20 12:31:50;;;;;;;6.57;5.60;;;3.70;99.90;;;;;;5047595;28;20244;-76
2023/01/20 12:34:37;;;;;;;13.05;6.15;;;3.60;99.90;;;;;;5048219;28;20212;-77
2023/01/20 12:37:24;;;;;;;8.00;5.85;;;3.50;99.90;;;;;;5047965;28;20736;-76
2023/01/20 12:40:20;;;;;;;9.13;5.85;;;3.40;99.90;;;;;;5047617;28;20214;-76
2023/01/20 12:43:07;;;;;;;16.77;6.30;;;3.40;99.90;;;;;;5049222;28;20170;-77
2023/01/20 12:45:39;;;;;;;9.70;6.18;;;3.10;99.90;;;;;;5049368;28;20581;-76
2023/01/20 12:48:34;;;;;;;8.20;5.30;;;3.10;99.90;;;;;;5048257;28;20546;-79
2023/01/20 12:51:22;;;;;;;10.37;6.50;;;3.00;99.90;;;;;;5047484;28;20209;-76
2023/01/20 12:54:14;;;;;;;10.10;6.88;;;3.10;99.90;;;;;;5049411;28;20456;-77
2023/01/20 12:56:54;;;;;;;12.40;7.10;;;3.20;99.90;;;;;;5048987;28;20165;-76
2023/01/20 12:59:29;;;;;;;8.27;5.68;;;3.00;99.90;;;;;;5048836;28;20220;-77
2023/01/20 13:02:23;;;;;;;9.68;6.72;;;3.00;99.90;;;;;;5048925;28;20215;-76
2023/01/20 13:05:11;;;;;;;10.20;5.65;;;3.00;99.90;;;;;;5049103;28;20178;-77
2023/01/20 13:07:46;;;;;;;11.32;6.28;;;3.00;99.90;;;;;;5029591;28;20197;-76
2023/01/20 13:10:38;;;;;;;6.35;5.07;;;3.00;99.90;;;;;;5049569;28;20195;-78